createdAt,value
2017-12-10T00:02:27.064Z,18.73
2017-12-10T00:04:55.025Z,17.43
2017-12-10T00:07:22.638Z,18.60
2017-12-10T00:09:50.251Z,17.03
2017-12-10T00:12:17.877Z,17.30
2017-12-10T00:14:45.780Z,17.53
2017-12-10T00:17:13.410Z,17.40
2017-12-10T00:19:41.254Z,16.93
2017-12-10T00:22:08.853Z,16.27
2017-12-10T00:24:36.475Z,17.30
2017-12-10T00:27:04.070Z,17.00
2017-12-10T00:29:31.714Z,18.23
2017-12-10T00:31:59.309Z,16.57
2017-12-10T00:34:26.918Z,18.37
2017-12-10T00:36:54.557Z,18.47
2017-12-10T00:39:22.141Z,17.27
2017-12-10T00:41:49.777Z,16.90
2017-12-10T00:44:17.392Z,17.47
2017-12-10T00:46:44.996Z,17.50
2017-12-10T00:49:12.602Z,17.30
2017-12-10T00:51:40.186Z,17.60
2017-12-10T00:54:08.213Z,17.67
2017-12-10T00:56:35.815Z,17.97
2017-12-10T00:59:03.409Z,18.10
2017-12-10T01:01:31.040Z,17.13
2017-12-10T01:03:58.941Z,17.87
2017-12-10T01:06:29.265Z,16.37
2017-12-10T01:08:56.897Z,17.70
2017-12-10T01:11:24.489Z,17.70
2017-12-10T01:13:52.138Z,17.10
2017-12-10T01:16:19.727Z,17.37
2017-12-10T01:18:47.356Z,17.00
2017-12-10T01:21:14.951Z,17.40
2017-12-10T01:23:42.537Z,18.27
2017-12-10T01:26:10.172Z,17.80
2017-12-10T01:28:37.841Z,17.90
2017-12-10T01:31:05.469Z,16.90
2017-12-10T01:33:33.056Z,17.77
2017-12-10T01:36:00.638Z,17.27
2017-12-10T01:38:28.252Z,16.67
2017-12-10T01:40:55.842Z,17.00
2017-12-10T01:43:23.476Z,17.63
2017-12-10T01:45:51.301Z,17.60
2017-12-10T01:48:18.908Z,16.87
2017-12-10T01:50:46.521Z,17.17
2017-12-10T01:53:14.127Z,16.43
2017-12-10T01:55:41.748Z,16.67
2017-12-10T01:58:09.678Z,17.17
2017-12-10T02:00:37.262Z,17.17
2017-12-10T02:03:04.876Z,17.03
2017-12-10T02:05:32.571Z,16.23
2017-12-10T02:08:00.233Z,15.87
2017-12-10T02:10:27.829Z,16.70
2017-12-10T02:12:55.411Z,15.90
2017-12-10T02:15:23.029Z,15.43
2017-12-10T02:17:50.645Z,15.80
2017-12-10T02:20:18.322Z,14.60
2017-12-10T02:22:45.948Z,14.30
2017-12-10T02:25:13.556Z,14.30
2017-12-10T02:27:41.189Z,14.87
2017-12-10T02:30:08.797Z,15.90
2017-12-10T02:32:36.440Z,14.17
2017-12-10T02:35:04.331Z,13.70
2017-12-10T02:37:31.928Z,14.20
2017-12-10T02:39:59.553Z,13.03
2017-12-10T02:42:27.152Z,13.70
2017-12-10T02:44:54.773Z,13.53
2017-12-10T02:47:22.504Z,12.80
2017-12-10T02:49:50.145Z,12.53
2017-12-10T02:52:17.796Z,12.57
2017-12-10T02:54:45.399Z,11.57
2017-12-10T02:57:13.016Z,13.77
2017-12-10T02:59:40.955Z,12.13
2017-12-10T03:02:08.817Z,12.23
2017-12-10T03:04:36.435Z,11.87
2017-12-10T03:07:04.034Z,11.80
2017-12-10T03:09:31.656Z,11.80
2017-12-10T03:11:59.235Z,11.33
2017-12-10T03:14:26.824Z,11.43
2017-12-10T03:16:54.457Z,10.97
2017-12-10T03:19:22.055Z,11.00
2017-12-10T03:21:49.713Z,11.00
2017-12-10T03:24:17.363Z,11.53
2017-12-10T03:26:44.942Z,11.00
2017-12-10T03:29:12.542Z,11.57
2017-12-10T03:31:40.146Z,11.00
2017-12-10T03:34:08.252Z,10.30
2017-12-10T03:36:35.835Z,11.13
2017-12-10T03:39:03.421Z,11.10
2017-12-10T03:41:32.809Z,10.50
2017-12-10T03:44:00.409Z,11.10
2017-12-10T03:46:28.295Z,10.33
2017-12-10T03:48:55.932Z,10.57
2017-12-10T03:51:23.523Z,10.17
2017-12-10T03:53:51.481Z,10.67
2017-12-10T03:56:19.074Z,9.83
2017-12-10T03:58:46.712Z,10.50
2017-12-10T04:01:14.295Z,10.50
2017-12-10T04:03:41.881Z,10.23
2017-12-10T04:06:09.498Z,9.87
2017-12-10T04:08:37.097Z,9.53
2017-12-10T04:11:04.737Z,9.20
2017-12-10T04:13:32.333Z,9.67
2017-12-10T04:15:59.957Z,9.10
2017-12-10T04:18:27.582Z,9.53
2017-12-10T04:20:55.204Z,10.73
2017-12-10T04:23:22.837Z,9.53
2017-12-10T04:25:50.467Z,9.20
2017-12-10T04:30:51.863Z,9.60
2017-12-10T04:33:19.464Z,9.37
2017-12-10T04:35:47.092Z,8.87
2017-12-10T04:38:14.735Z,9.90
2017-12-10T04:40:42.618Z,9.10
2017-12-10T04:43:10.213Z,9.17
2017-12-10T04:45:38.146Z,9.60
2017-12-10T04:48:05.761Z,9.50
2017-12-10T04:50:33.331Z,9.10
2017-12-10T04:53:00.912Z,9.70
2017-12-10T04:55:28.748Z,9.50
2017-12-10T04:57:56.331Z,10.53
2017-12-10T05:00:23.948Z,9.00
2017-12-10T05:02:51.532Z,9.17
2017-12-10T05:05:19.117Z,9.20
2017-12-10T05:07:47.112Z,9.90
2017-12-10T05:10:14.990Z,9.47
2017-12-10T05:12:42.601Z,9.80
2017-12-10T05:15:10.215Z,9.40
2017-12-10T05:17:38.082Z,9.80
2017-12-10T05:20:05.743Z,9.77
2017-12-10T05:22:33.341Z,9.60
2017-12-10T05:25:00.985Z,10.10
2017-12-10T05:27:28.563Z,10.10
2017-12-10T05:29:56.157Z,9.73
2017-12-10T05:32:23.764Z,10.33
2017-12-10T05:34:51.343Z,10.57
2017-12-10T05:37:18.974Z,9.73
2017-12-10T05:39:46.568Z,10.40
2017-12-10T05:42:14.162Z,10.70
2017-12-10T05:44:41.769Z,10.30
2017-12-10T05:47:09.348Z,9.90
2017-12-10T05:49:37.284Z,9.20
2017-12-10T05:52:04.874Z,9.50
2017-12-10T05:54:32.470Z,9.40
2017-12-10T05:57:00.380Z,9.50
2017-12-10T05:59:27.963Z,10.50
2017-12-10T06:01:55.571Z,9.90
2017-12-10T06:04:23.153Z,9.73
2017-12-10T06:06:50.750Z,8.80
2017-12-10T06:09:18.692Z,9.17
2017-12-10T06:11:46.564Z,9.37
2017-12-10T06:14:14.234Z,9.30
2017-12-10T06:16:41.821Z,10.10
2017-12-10T06:19:09.413Z,10.07
2017-12-10T06:21:37.025Z,9.80
2017-12-10T06:24:04.616Z,9.07
2017-12-10T06:26:32.227Z,9.30
2017-12-10T06:28:59.792Z,9.67
2017-12-10T06:31:27.372Z,9.70
2017-12-10T06:33:55.321Z,9.17
2017-12-10T06:36:22.913Z,9.60
2017-12-10T06:38:50.752Z,9.60
2017-12-10T06:41:18.356Z,8.70
2017-12-10T06:43:45.951Z,9.67
2017-12-10T06:46:13.530Z,9.50
2017-12-10T06:48:41.515Z,9.77
2017-12-10T06:51:09.108Z,10.00
2017-12-10T06:53:36.698Z,9.37
2017-12-10T06:56:04.400Z,9.63
2017-12-10T06:58:31.989Z,9.53
2017-12-10T07:00:59.628Z,9.47
2017-12-10T07:03:27.213Z,9.30
2017-12-10T07:05:54.823Z,9.40
2017-12-10T07:08:22.426Z,9.53
2017-12-10T07:10:50.272Z,9.40
2017-12-10T07:13:17.902Z,9.23
2017-12-10T07:15:45.798Z,9.20
2017-12-10T07:18:13.391Z,9.10
2017-12-10T07:20:41.067Z,9.53
2017-12-10T07:23:08.683Z,10.40
2017-12-10T07:25:36.658Z,9.70
2017-12-10T07:28:04.330Z,9.10
2017-12-10T07:30:32.184Z,9.53
2017-12-10T07:33:00.065Z,9.40
2017-12-10T07:35:27.709Z,9.80
2017-12-10T07:37:55.337Z,9.47
2017-12-10T07:40:22.912Z,9.37
2017-12-10T07:42:50.476Z,9.20
2017-12-10T07:45:18.095Z,9.07
2017-12-10T07:47:45.677Z,9.50
2017-12-10T07:50:13.622Z,9.80
2017-12-10T07:52:41.281Z,9.20
2017-12-10T07:55:09.128Z,9.30
2017-12-10T07:57:36.774Z,9.50
2017-12-10T08:00:04.657Z,9.20
2017-12-10T08:02:32.299Z,10.47
2017-12-10T08:04:59.883Z,9.47
2017-12-10T08:07:27.469Z,9.63
2017-12-10T08:09:55.094Z,9.43
2017-12-10T08:12:22.693Z,9.50
2017-12-10T08:14:50.304Z,9.40
2017-12-10T08:17:18.193Z,9.43
2017-12-10T08:19:45.868Z,9.00
2017-12-10T08:22:13.489Z,9.63
2017-12-10T08:24:41.120Z,9.17
2017-12-10T08:27:08.722Z,9.27
2017-12-10T08:29:36.292Z,9.40
2017-12-10T08:32:04.174Z,9.90
2017-12-10T08:34:32.042Z,9.00
2017-12-10T08:36:59.639Z,9.90
2017-12-10T08:39:27.251Z,9.83
2017-12-10T08:41:55.143Z,9.20
2017-12-10T08:44:22.772Z,9.43
2017-12-10T08:46:50.356Z,9.77
2017-12-10T08:49:17.946Z,9.37
2017-12-10T08:51:45.609Z,9.63
2017-12-10T08:54:13.199Z,9.40
2017-12-10T08:56:40.870Z,9.00
2017-12-10T08:59:08.785Z,9.10
2017-12-10T09:01:36.358Z,9.27
2017-12-10T09:04:03.961Z,9.10
2017-12-10T09:06:31.601Z,9.17
2017-12-10T09:08:59.222Z,9.90
2017-12-10T09:11:26.857Z,10.37
2017-12-10T09:13:54.463Z,9.20
2017-12-10T09:16:22.067Z,9.03
2017-12-10T09:18:49.680Z,8.40
2017-12-10T09:21:17.300Z,9.60
2017-12-10T09:23:45.301Z,9.07
2017-12-10T09:26:12.921Z,9.10
2017-12-10T09:28:40.579Z,9.00
2017-12-10T09:31:08.163Z,8.60
2017-12-10T09:33:36.024Z,9.27
2017-12-10T09:36:03.604Z,9.30
2017-12-10T09:38:31.238Z,9.00
2017-12-10T09:40:58.889Z,8.97
2017-12-10T09:43:26.576Z,8.33
2017-12-10T09:45:54.342Z,9.00
2017-12-10T09:48:21.937Z,9.10
2017-12-10T09:50:49.544Z,9.33
2017-12-10T09:53:17.164Z,9.00
2017-12-10T09:55:45.023Z,8.83
2017-12-10T09:58:12.997Z,8.90
2017-12-10T10:00:40.567Z,9.40
2017-12-10T10:03:08.160Z,9.50
2017-12-10T10:05:35.780Z,9.60
2017-12-10T10:08:03.383Z,8.83
2017-12-10T10:10:31.001Z,8.90
2017-12-10T10:12:58.576Z,9.40
2017-12-10T10:15:26.199Z,8.67
2017-12-10T10:17:53.814Z,8.63
2017-12-10T10:20:21.396Z,8.60
2017-12-10T10:22:49.037Z,8.87
2017-12-10T10:25:16.659Z,8.43
2017-12-10T10:27:44.256Z,8.60
2017-12-10T10:30:11.882Z,8.80
2017-12-10T10:32:39.460Z,8.60
2017-12-10T10:35:07.091Z,9.63
2017-12-10T10:37:35.108Z,10.37
2017-12-10T10:40:02.754Z,8.80
2017-12-10T10:42:30.364Z,9.17
2017-12-10T10:44:57.955Z,9.33
2017-12-10T10:47:25.560Z,9.07
2017-12-10T10:49:53.213Z,8.60
2017-12-10T10:52:20.872Z,9.03
2017-12-10T10:54:48.468Z,9.63
2017-12-10T10:57:16.079Z,10.13
2017-12-10T10:59:43.690Z,11.90
2017-12-10T11:02:11.282Z,11.57
2017-12-10T11:04:38.913Z,10.60
2017-12-10T11:07:06.491Z,15.50
2017-12-10T11:09:34.103Z,13.40
2017-12-10T11:12:02.067Z,8.73
2017-12-10T11:14:29.635Z,9.00
2017-12-10T11:16:57.299Z,9.50
2017-12-10T11:19:24.905Z,8.63
2017-12-10T11:21:52.543Z,8.80
2017-12-10T11:24:20.169Z,8.70
2017-12-10T11:26:47.764Z,10.93
2017-12-10T11:29:15.814Z,8.90
2017-12-10T11:31:43.396Z,8.87
2017-12-10T11:34:10.978Z,8.80
2017-12-10T11:36:38.576Z,8.70
2017-12-10T11:39:06.202Z,8.90
2017-12-10T11:41:33.828Z,8.80
2017-12-10T11:44:01.403Z,9.23
2017-12-10T11:46:28.984Z,9.67
2017-12-10T11:48:56.596Z,9.90
2017-12-10T11:51:24.188Z,9.47
2017-12-10T11:53:52.137Z,9.33
2017-12-10T11:56:19.717Z,9.80
2017-12-10T11:58:47.308Z,10.00
2017-12-10T12:01:14.918Z,8.90
2017-12-10T12:03:42.519Z,9.00
2017-12-10T12:06:10.128Z,9.90
2017-12-10T12:08:37.723Z,9.33
2017-12-10T12:11:05.298Z,9.80
2017-12-10T12:13:32.918Z,9.30
2017-12-10T12:16:00.520Z,9.10
2017-12-10T12:18:28.131Z,9.80
2017-12-10T12:20:55.741Z,9.60
2017-12-10T12:23:23.316Z,10.47
2017-12-10T12:25:50.971Z,10.70
2017-12-10T12:28:18.560Z,9.27
2017-12-10T12:30:46.469Z,9.37
2017-12-10T12:33:14.086Z,9.87
2017-12-10T12:35:41.712Z,10.43
2017-12-10T12:38:09.678Z,10.20
2017-12-10T12:40:37.293Z,9.17
2017-12-10T12:43:04.917Z,8.60
2017-12-10T12:45:32.500Z,9.03
2017-12-10T12:48:00.106Z,9.10
2017-12-10T12:50:27.951Z,9.57
2017-12-10T12:52:55.570Z,9.50
2017-12-10T12:55:23.509Z,8.97
2017-12-10T12:57:51.236Z,9.10
2017-12-10T13:00:18.887Z,9.53
2017-12-10T13:02:46.522Z,9.40
2017-12-10T13:05:14.255Z,9.00
2017-12-10T13:07:42.151Z,8.97
2017-12-10T13:10:09.804Z,9.30
2017-12-10T13:12:37.412Z,9.30
2017-12-10T13:15:05.332Z,9.27
2017-12-10T13:17:32.958Z,9.03
2017-12-10T13:20:00.535Z,9.17
2017-12-10T13:22:28.240Z,9.20
2017-12-10T13:24:55.896Z,9.30
2017-12-10T13:27:23.472Z,9.23
2017-12-10T13:29:51.120Z,9.07
2017-12-10T13:32:18.724Z,9.13
2017-12-10T13:34:46.385Z,8.90
2017-12-10T13:37:14.400Z,9.70
2017-12-10T13:39:42.387Z,9.33
2017-12-10T13:42:10.127Z,12.77
2017-12-10T13:44:37.798Z,10.60
2017-12-10T13:47:05.473Z,9.33
2017-12-10T13:49:33.073Z,9.13
2017-12-10T13:52:00.672Z,9.20
2017-12-10T13:54:28.296Z,8.73
2017-12-10T13:56:55.896Z,9.10
2017-12-10T13:59:24.498Z,9.30
2017-12-10T14:01:52.173Z,8.83
2017-12-10T14:04:20.128Z,9.20
2017-12-10T14:06:47.773Z,9.20
2017-12-10T14:09:15.434Z,10.30
2017-12-10T14:11:43.013Z,9.63
2017-12-10T14:14:10.641Z,9.53
2017-12-10T14:16:38.270Z,9.57
2017-12-10T14:19:06.201Z,9.33
2017-12-10T14:21:33.799Z,9.10
2017-12-10T14:24:01.389Z,9.90
2017-12-10T14:26:29.006Z,9.50
2017-12-10T14:28:56.744Z,9.50
2017-12-10T14:31:24.408Z,9.30
2017-12-10T14:33:51.987Z,9.10
2017-12-10T14:36:19.614Z,9.33
2017-12-10T14:38:47.252Z,9.80
2017-12-10T14:41:14.900Z,9.20
2017-12-10T14:43:42.525Z,9.10
2017-12-10T14:46:10.101Z,9.10
2017-12-10T14:48:37.680Z,9.10
2017-12-10T14:51:05.296Z,9.33
2017-12-10T14:53:32.961Z,9.17
2017-12-10T14:56:00.623Z,9.60
2017-12-10T14:58:28.203Z,9.20
2017-12-10T15:00:55.837Z,9.00
2017-12-10T15:03:23.503Z,9.00
2017-12-10T15:05:51.145Z,9.00
2017-12-10T15:08:18.838Z,9.30
2017-12-10T15:10:46.483Z,9.77
2017-12-10T15:13:14.056Z,9.23
2017-12-10T15:15:41.943Z,9.23
2017-12-10T15:18:09.580Z,9.20
2017-12-10T15:20:37.849Z,9.03
2017-12-10T15:23:05.560Z,12.77
2017-12-10T15:25:33.168Z,10.07
2017-12-10T15:28:00.835Z,8.97
2017-12-10T15:30:28.501Z,9.27
2017-12-10T15:32:56.221Z,9.40
2017-12-10T15:35:23.897Z,8.90
2017-12-10T15:37:51.533Z,9.20
2017-12-10T15:40:19.145Z,9.30
2017-12-10T15:42:46.757Z,9.10
2017-12-10T15:45:14.375Z,8.90
2017-12-10T15:47:42.036Z,9.60
2017-12-10T15:50:09.942Z,9.37
2017-12-10T15:52:37.558Z,9.70
2017-12-10T15:55:05.140Z,9.50
2017-12-10T15:57:32.752Z,9.23
2017-12-10T16:00:01.669Z,9.40
2017-12-10T16:02:29.245Z,9.30
2017-12-10T16:04:57.151Z,10.33
2017-12-10T16:09:58.645Z,9.40
2017-12-10T16:12:26.229Z,9.00
2017-12-10T16:14:54.039Z,9.30
2017-12-10T16:17:21.657Z,9.03
2017-12-10T16:19:49.520Z,10.10
2017-12-10T16:22:17.141Z,9.57
2017-12-10T16:24:44.744Z,9.50
2017-12-10T16:27:12.540Z,9.47
2017-12-10T16:29:40.555Z,9.07
2017-12-10T16:32:08.138Z,9.03
2017-12-10T16:34:35.789Z,10.13
2017-12-10T16:37:03.432Z,12.27
2017-12-10T16:39:31.405Z,10.73
2017-12-10T16:41:59.004Z,10.17
2017-12-10T16:44:26.936Z,9.70
2017-12-10T16:46:54.902Z,9.73
2017-12-10T16:49:22.489Z,9.60
2017-12-10T16:51:50.060Z,9.80
2017-12-10T16:54:17.710Z,10.00
2017-12-10T16:56:45.289Z,10.10
2017-12-10T16:59:12.936Z,10.50
2017-12-10T17:01:40.512Z,9.80
2017-12-10T17:04:08.258Z,10.80
2017-12-10T17:06:35.866Z,9.97
2017-12-10T17:09:03.468Z,11.00
2017-12-10T17:11:31.112Z,10.97
2017-12-10T17:13:58.700Z,11.33
2017-12-10T17:16:26.294Z,10.80
2017-12-10T17:18:53.939Z,11.30
2017-12-10T17:21:21.600Z,10.80
2017-12-10T17:23:49.229Z,11.20
2017-12-10T17:26:16.837Z,14.10
2017-12-10T17:28:44.470Z,12.47
2017-12-10T17:31:12.088Z,12.10
2017-12-10T17:33:39.696Z,11.70
2017-12-10T17:36:07.351Z,11.70
2017-12-10T17:38:35.014Z,12.17
2017-12-10T17:41:02.593Z,12.70
2017-12-10T17:43:30.216Z,11.77
2017-12-10T17:45:57.900Z,12.20
2017-12-10T17:48:25.551Z,11.90
2017-12-10T17:50:53.132Z,11.77
2017-12-10T17:53:20.716Z,12.00
2017-12-10T17:55:48.359Z,11.47
2017-12-10T17:58:15.944Z,11.50
2017-12-10T18:00:43.561Z,11.80
2017-12-10T18:03:11.231Z,13.07
2017-12-10T18:05:38.821Z,11.57
2017-12-10T18:08:06.453Z,12.63
2017-12-10T18:10:34.036Z,12.00
2017-12-10T18:13:01.674Z,11.63
2017-12-10T18:15:29.277Z,11.90
2017-12-10T18:17:56.866Z,11.90
2017-12-10T18:20:24.495Z,11.47
2017-12-10T18:22:52.114Z,11.20
2017-12-10T18:25:19.757Z,11.50
2017-12-10T18:27:47.364Z,11.63
2017-12-10T18:30:15.603Z,11.90
2017-12-10T18:32:43.231Z,11.70
2017-12-10T18:35:10.833Z,11.43
2017-12-10T18:37:38.495Z,11.50
2017-12-10T18:40:06.380Z,11.40
2017-12-10T18:42:33.965Z,11.30
2017-12-10T18:45:01.710Z,11.00
2017-12-10T18:47:29.297Z,11.90
2017-12-10T18:49:56.929Z,10.97
2017-12-10T18:52:24.984Z,11.57
2017-12-10T18:54:52.570Z,11.80
2017-12-10T18:57:20.200Z,11.40
2017-12-10T18:59:47.786Z,11.43
2017-12-10T19:02:17.650Z,12.63
2017-12-10T19:04:45.578Z,11.37
2017-12-10T19:07:13.187Z,11.57
2017-12-10T19:09:40.913Z,11.47
2017-12-10T19:12:08.537Z,14.50
2017-12-10T19:14:36.190Z,11.53
2017-12-10T19:17:03.797Z,10.57
2017-12-10T19:19:31.652Z,12.60
2017-12-10T19:21:59.722Z,11.57
2017-12-10T19:24:27.386Z,10.60
2017-12-10T19:26:55.014Z,20.07
2017-12-10T19:29:22.608Z,15.17
2017-12-10T19:31:50.234Z,10.30
2017-12-10T19:34:17.874Z,10.60
2017-12-10T19:36:45.460Z,10.50
2017-12-10T19:39:13.368Z,10.10
2017-12-10T19:41:41.948Z,10.03
2017-12-10T19:44:09.569Z,11.10
2017-12-10T19:46:37.438Z,10.27
2017-12-10T19:49:05.062Z,10.57
2017-12-10T19:51:32.700Z,11.37
2017-12-10T19:54:00.310Z,10.87
2017-12-10T19:56:27.964Z,10.60
2017-12-10T19:58:55.562Z,10.30
2017-12-10T20:01:23.472Z,10.00
2017-12-10T20:03:51.073Z,10.13
2017-12-10T20:06:18.698Z,10.90
2017-12-10T20:08:46.543Z,10.50
2017-12-10T20:11:14.162Z,10.80
2017-12-10T20:13:42.087Z,10.73
2017-12-10T20:16:09.956Z,10.90
2017-12-10T20:18:37.820Z,11.03
2017-12-10T20:21:05.463Z,10.57
2017-12-10T20:23:33.084Z,11.00
2017-12-10T20:26:00.687Z,10.97
2017-12-10T20:28:28.349Z,10.77
2017-12-10T20:30:55.976Z,10.27
2017-12-10T20:33:23.899Z,11.30
2017-12-10T20:35:51.520Z,10.93
2017-12-10T20:38:19.117Z,11.33
2017-12-10T20:40:46.751Z,11.57
2017-12-10T20:43:14.355Z,18.97
2017-12-10T20:45:41.946Z,12.03
2017-12-10T20:48:09.601Z,11.70
2017-12-10T20:50:37.180Z,11.43
2017-12-10T20:53:04.825Z,10.80
2017-12-10T20:55:32.423Z,10.63
2017-12-10T20:58:00.425Z,10.30
2017-12-10T21:00:28.075Z,11.10
2017-12-10T21:02:55.961Z,11.30
2017-12-10T21:05:23.940Z,12.47
2017-12-10T21:07:51.546Z,11.20
2017-12-10T21:10:19.180Z,11.93
2017-12-10T21:12:46.808Z,12.17
2017-12-10T21:15:14.400Z,11.93
2017-12-10T21:17:42.073Z,11.90
2017-12-10T21:20:09.659Z,11.23
2017-12-10T21:22:37.246Z,11.40
2017-12-10T21:25:04.864Z,12.60
2017-12-10T21:27:32.502Z,12.40
2017-12-10T21:30:00.124Z,11.90
2017-12-10T21:32:28.013Z,12.27
2017-12-10T21:34:55.611Z,12.53
2017-12-10T21:37:23.221Z,12.77
2017-12-10T21:39:50.904Z,12.57
2017-12-10T21:42:18.504Z,12.60
2017-12-10T21:44:46.084Z,12.67
2017-12-10T21:47:13.707Z,12.57
2017-12-10T21:49:41.654Z,12.43
2017-12-10T21:52:09.245Z,13.27
2017-12-10T21:54:36.857Z,12.00
2017-12-10T21:57:04.456Z,12.27
2017-12-10T21:59:32.317Z,13.10
2017-12-10T22:01:59.924Z,12.93
2017-12-10T22:04:27.522Z,12.83
2017-12-10T22:06:55.509Z,12.30
2017-12-10T22:09:23.379Z,12.70
2017-12-10T22:11:50.955Z,12.73
2017-12-10T22:14:18.556Z,13.00
2017-12-10T22:16:46.158Z,12.30
2017-12-10T22:19:14.127Z,12.53
2017-12-10T22:21:41.702Z,12.17
2017-12-10T22:24:09.286Z,12.90
2017-12-10T22:26:37.217Z,12.40
2017-12-10T22:29:04.795Z,12.50
2017-12-10T22:31:32.421Z,12.30
2017-12-10T22:34:00.013Z,23.30
2017-12-10T22:36:27.600Z,19.00
2017-12-10T22:38:55.537Z,12.83
2017-12-10T22:41:23.145Z,13.80
2017-12-10T22:43:50.764Z,13.43
2017-12-10T22:46:18.351Z,13.00
2017-12-10T22:48:45.950Z,12.63
2017-12-10T22:51:13.544Z,11.83
2017-12-10T22:53:41.126Z,12.90
2017-12-10T22:56:08.789Z,12.67
2017-12-10T22:58:36.392Z,12.67
2017-12-10T23:01:03.976Z,13.13
2017-12-10T23:03:31.575Z,12.77
2017-12-10T23:05:59.162Z,12.90
2017-12-10T23:08:26.788Z,13.00
2017-12-10T23:10:54.637Z,12.40
2017-12-10T23:13:34.077Z,12.77
2017-12-10T23:16:01.679Z,13.30
2017-12-10T23:18:29.282Z,12.17
2017-12-10T23:20:56.943Z,13.37
2017-12-10T23:23:24.516Z,12.77
2017-12-10T23:25:52.171Z,12.50
2017-12-10T23:28:19.757Z,13.30
2017-12-10T23:30:47.335Z,12.87
2017-12-10T23:33:14.948Z,13.63
2017-12-10T23:35:42.588Z,12.90
2017-12-10T23:38:10.204Z,12.80
2017-12-10T23:40:37.801Z,12.90
2017-12-10T23:43:06.244Z,12.03
2017-12-10T23:45:33.880Z,12.87
2017-12-10T23:48:01.468Z,13.67
2017-12-10T23:50:29.431Z,12.90
2017-12-10T23:52:57.027Z,12.77
2017-12-10T23:55:24.619Z,12.80
2017-12-10T23:57:52.229Z,12.67
